sensor_id;sensor_type;location;lat;lon;timestamp;P1;durP1;ratioP1;P2;durP2;ratioP2
20535;SDS011;10426;49.420;8.390;2022-09-12T00:01:19;5.50;;;5.07;;
20535;SDS011;10426;49.420;8.390;2022-09-12T00:03:46;5.80;;;5.25;;
20535;SDS011;10426;49.420;8.390;2022-09-12T00:06:15;5.28;;;4.80;;
20535;SDS011;10426;49.420;8.390;2022-09-12T00:08:43;5.43;;;4.63;;
20535;SDS011;10426;49.420;8.390;2022-09-12T00:11:10;6.43;;;5.03;;
20535;SDS011;10426;49.420;8.390;2022-09-12T00:13:37;5.40;;;4.90;;
20535;SDS011;10426;49.420;8.390;2022-09-12T00:16:04;5.05;;;4.65;;
20535;SDS011;10426;49.420;8.390;2022-09-12T00:18:31;6.53;;;5.00;;
20535;SDS011;10426;49.420;8.390;2022-09-12T00:21:00;5.30;;;4.70;;
20535;SDS011;10426;49.420;8.390;2022-09-12T00:23:27;5.18;;;4.60;;
20535;SDS011;10426;49.420;8.390;2022-09-12T00:25:55;5.20;;;4.80;;
20535;SDS011;10426;49.420;8.390;2022-09-12T00:28:22;5.35;;;4.85;;
20535;SDS011;10426;49.420;8.390;2022-09-12T00:30:48;5.35;;;4.93;;
20535;SDS011;10426;49.420;8.390;2022-09-12T00:33:15;5.23;;;4.83;;
20535;SDS011;10426;49.420;8.390;2022-09-12T00:35:42;4.88;;;4.47;;
20535;SDS011;10426;49.420;8.390;2022-09-12T00:38:10;4.75;;;4.35;;
20535;SDS011;10426;49.420;8.390;2022-09-12T00:40:37;7.07;;;5.28;;
20535;SDS011;10426;49.420;8.390;2022-09-12T00:43:05;5.00;;;4.55;;
20535;SDS011;10426;49.420;8.390;2022-09-12T00:45:31;5.03;;;4.63;;
20535;SDS011;10426;49.420;8.390;2022-09-12T00:47:59;5.53;;;4.97;;
20535;SDS011;10426;49.420;8.390;2022-09-12T00:50:27;5.45;;;4.95;;
20535;SDS011;10426;49.420;8.390;2022-09-12T00:52:56;5.15;;;4.75;;
20535;SDS011;10426;49.420;8.390;2022-09-12T00:55:23;5.20;;;4.80;;
20535;SDS011;10426;49.420;8.390;2022-09-12T00:57:53;4.90;;;4.50;;
20535;SDS011;10426;49.420;8.390;2022-09-12T01:00:23;5.15;;;4.75;;
20535;SDS011;10426;49.420;8.390;2022-09-12T01:02:51;5.55;;;5.15;;
20535;SDS011;10426;49.420;8.390;2022-09-12T01:05:19;4.80;;;4.50;;
20535;SDS011;10426;49.420;8.390;2022-09-12T01:07:46;6.25;;;4.40;;
20535;SDS011;10426;49.420;8.390;2022-09-12T01:10:14;5.30;;;4.80;;
20535;SDS011;10426;49.420;8.390;2022-09-12T01:12:41;5.50;;;5.00;;
20535;SDS011;10426;49.420;8.390;2022-09-12T01:15:08;5.68;;;5.18;;
20535;SDS011;10426;49.420;8.390;2022-09-12T01:17:39;5.78;;;4.90;;
20535;SDS011;10426;49.420;8.390;2022-09-12T01:20:18;5.50;;;5.03;;
20535;SDS011;10426;49.420;8.390;2022-09-12T01:22:56;5.13;;;4.72;;
20535;SDS011;10426;49.420;8.390;2022-09-12T01:25:27;6.22;;;5.13;;
20535;SDS011;10426;49.420;8.390;2022-09-12T01:28:01;5.78;;;5.28;;
20535;SDS011;10426;49.420;8.390;2022-09-12T01:30:44;6.28;;;5.10;;
20535;SDS011;10426;49.420;8.390;2022-09-12T01:33:16;5.47;;;4.97;;
20535;SDS011;10426;49.420;8.390;2022-09-12T01:35:49;4.97;;;4.55;;
20535;SDS011;10426;49.420;8.390;2022-09-12T01:38:21;5.05;;;4.28;;
20535;SDS011;10426;49.420;8.390;2022-09-12T01:40:50;5.00;;;4.60;;
20535;SDS011;10426;49.420;8.390;2022-09-12T01:43:22;5.40;;;4.90;;
20535;SDS011;10426;49.420;8.390;2022-09-12T01:45:55;5.22;;;4.72;;
20535;SDS011;10426;49.420;8.390;2022-09-12T01:48:24;6.70;;;4.43;;
20535;SDS011;10426;49.420;8.390;2022-09-12T01:50:53;5.85;;;5.30;;
20535;SDS011;10426;49.420;8.390;2022-09-12T01:53:23;6.25;;;5.10;;
20535;SDS011;10426;49.420;8.390;2022-09-12T01:55:53;5.10;;;4.70;;
20535;SDS011;10426;49.420;8.390;2022-09-12T01:58:21;7.28;;;5.40;;
20535;SDS011;10426;49.420;8.390;2022-09-12T02:00:51;6.18;;;5.57;;
20535;SDS011;10426;49.420;8.390;2022-09-12T02:03:22;6.30;;;5.57;;
20535;SDS011;10426;49.420;8.390;2022-09-12T02:05:51;5.55;;;5.15;;
20535;SDS011;10426;49.420;8.390;2022-09-12T02:08:19;6.13;;;5.63;;
20535;SDS011;10426;49.420;8.390;2022-09-12T02:10:48;5.50;;;5.07;;
20535;SDS011;10426;49.420;8.390;2022-09-12T02:13:17;6.38;;;5.20;;
20535;SDS011;10426;49.420;8.390;2022-09-12T02:15:45;5.93;;;5.38;;
20535;SDS011;10426;49.420;8.390;2022-09-12T02:18:12;6.03;;;5.10;;
20535;SDS011;10426;49.420;8.390;2022-09-12T02:20:44;5.35;;;4.85;;
20535;SDS011;10426;49.420;8.390;2022-09-12T02:26:34;5.63;;;5.13;;
20535;SDS011;10426;49.420;8.390;2022-09-12T02:29:01;5.38;;;4.97;;
20535;SDS011;10426;49.420;8.390;2022-09-12T02:31:30;5.40;;;5.00;;
20535;SDS011;10426;49.420;8.390;2022-09-12T02:34:04;5.60;;;5.10;;
20535;SDS011;10426;49.420;8.390;2022-09-12T02:36:38;5.55;;;5.05;;
20535;SDS011;10426;49.420;8.390;2022-09-12T02:39:07;5.50;;;5.00;;
20535;SDS011;10426;49.420;8.390;2022-09-12T02:41:34;6.03;;;5.35;;
20535;SDS011;10426;49.420;8.390;2022-09-12T02:44:01;5.97;;;5.38;;
20535;SDS011;10426;49.420;8.390;2022-09-12T02:46:31;5.40;;;5.00;;
20535;SDS011;10426;49.420;8.390;2022-09-12T02:48:58;5.30;;;4.90;;
20535;SDS011;10426;49.420;8.390;2022-09-12T02:51:25;5.47;;;5.07;;
20535;SDS011;10426;49.420;8.390;2022-09-12T02:54:12;5.32;;;4.80;;
20535;SDS011;10426;49.420;8.390;2022-09-12T02:56:40;6.38;;;5.45;;
20535;SDS011;10426;49.420;8.390;2022-09-12T02:59:08;5.78;;;5.28;;
20535;SDS011;10426;49.420;8.390;2022-09-12T03:01:40;5.70;;;5.10;;
20535;SDS011;10426;49.420;8.390;2022-09-12T03:04:14;5.45;;;4.95;;
20535;SDS011;10426;49.420;8.390;2022-09-12T03:06:45;4.93;;;4.50;;
20535;SDS011;10426;49.420;8.390;2022-09-12T03:09:18;5.38;;;4.88;;
20535;SDS011;10426;49.420;8.390;2022-09-12T03:14:35;5.65;;;5.20;;
20535;SDS011;10426;49.420;8.390;2022-09-12T03:17:08;5.25;;;4.90;;
20535;SDS011;10426;49.420;8.390;2022-09-12T03:19:39;4.85;;;4.45;;
20535;SDS011;10426;49.420;8.390;2022-09-12T03:22:10;5.72;;;5.18;;
20535;SDS011;10426;49.420;8.390;2022-09-12T03:24:41;5.25;;;4.85;;
20535;SDS011;10426;49.420;8.390;2022-09-12T03:27:11;5.22;;;4.88;;
20535;SDS011;10426;49.420;8.390;2022-09-12T03:29:39;5.15;;;4.65;;
20535;SDS011;10426;49.420;8.390;2022-09-12T03:32:07;5.30;;;4.80;;
20535;SDS011;10426;49.420;8.390;2022-09-12T03:34:33;5.38;;;4.97;;
20535;SDS011;10426;49.420;8.390;2022-09-12T03:37:00;5.40;;;5.00;;
20535;SDS011;10426;49.420;8.390;2022-09-12T03:39:26;5.50;;;5.10;;
20535;SDS011;10426;49.420;8.390;2022-09-12T03:41:55;5.13;;;4.72;;
20535;SDS011;10426;49.420;8.390;2022-09-12T03:44:21;5.20;;;4.80;;
20535;SDS011;10426;49.420;8.390;2022-09-12T03:46:49;5.00;;;4.60;;
20535;SDS011;10426;49.420;8.390;2022-09-12T03:49:15;5.18;;;4.78;;
20535;SDS011;10426;49.420;8.390;2022-09-12T03:51:42;5.15;;;4.53;;
20535;SDS011;10426;49.420;8.390;2022-09-12T03:54:09;5.40;;;4.90;;
20535;SDS011;10426;49.420;8.390;2022-09-12T03:56:36;4.82;;;4.43;;
20535;SDS011;10426;49.420;8.390;2022-09-12T03:59:05;5.65;;;4.60;;
20535;SDS011;10426;49.420;8.390;2022-09-12T04:01:32;5.28;;;4.78;;
20535;SDS011;10426;49.420;8.390;2022-09-12T04:03:58;4.82;;;4.47;;
20535;SDS011;10426;49.420;8.390;2022-09-12T04:06:25;5.25;;;4.85;;
20535;SDS011;10426;49.420;8.390;2022-09-12T04:08:52;5.25;;;4.75;;
20535;SDS011;10426;49.420;8.390;2022-09-12T04:11:19;5.32;;;4.78;;
20535;SDS011;10426;49.420;8.390;2022-09-12T04:13:46;5.32;;;4.90;;
20535;SDS011;10426;49.420;8.390;2022-09-12T04:16:15;5.50;;;4.97;;
20535;SDS011;10426;49.420;8.390;2022-09-12T04:18:41;5.13;;;4.70;;
20535;SDS011;10426;49.420;8.390;2022-09-12T04:21:09;4.97;;;4.67;;
20535;SDS011;10426;49.420;8.390;2022-09-12T04:23:36;5.22;;;4.80;;
20535;SDS011;10426;49.420;8.390;2022-09-12T04:26:03;5.45;;;4.80;;
20535;SDS011;10426;49.420;8.390;2022-09-12T04:28:31;4.70;;;4.30;;
20535;SDS011;10426;49.420;8.390;2022-09-12T04:31:00;5.20;;;4.80;;
20535;SDS011;10426;49.420;8.390;2022-09-12T04:33:28;5.20;;;4.70;;
20535;SDS011;10426;49.420;8.390;2022-09-12T04:35:54;4.90;;;4.50;;
20535;SDS011;10426;49.420;8.390;2022-09-12T04:38:21;4.97;;;4.57;;
20535;SDS011;10426;49.420;8.390;2022-09-12T04:40:49;5.30;;;4.50;;
20535;SDS011;10426;49.420;8.390;2022-09-12T04:43:15;5.68;;;4.65;;
20535;SDS011;10426;49.420;8.390;2022-09-12T04:45:42;4.93;;;4.43;;
20535;SDS011;10426;49.420;8.390;2022-09-12T04:48:08;4.80;;;4.40;;
20535;SDS011;10426;49.420;8.390;2022-09-12T04:50:36;4.45;;;4.10;;
20535;SDS011;10426;49.420;8.390;2022-09-12T04:53:03;4.90;;;4.50;;
20535;SDS011;10426;49.420;8.390;2022-09-12T04:55:30;4.97;;;4.47;;
20535;SDS011;10426;49.420;8.390;2022-09-12T04:57:59;4.50;;;4.10;;
20535;SDS011;10426;49.420;8.390;2022-09-12T05:00:26;5.03;;;4.63;;
20535;SDS011;10426;49.420;8.390;2022-09-12T05:02:53;7.85;;;5.43;;
20535;SDS011;10426;49.420;8.390;2022-09-12T05:05:20;5.40;;;4.93;;
20535;SDS011;10426;49.420;8.390;2022-09-12T05:07:48;5.30;;;4.80;;
20535;SDS011;10426;49.420;8.390;2022-09-12T05:10:15;5.17;;;4.67;;
20535;SDS011;10426;49.420;8.390;2022-09-12T05:12:42;5.30;;;4.80;;
20535;SDS011;10426;49.420;8.390;2022-09-12T05:15:09;4.50;;;4.20;;
20535;SDS011;10426;49.420;8.390;2022-09-12T05:17:36;5.13;;;4.47;;
20535;SDS011;10426;49.420;8.390;2022-09-12T05:20:03;5.07;;;4.60;;
20535;SDS011;10426;49.420;8.390;2022-09-12T05:22:29;5.30;;;4.20;;
20535;SDS011;10426;49.420;8.390;2022-09-12T05:24:58;6.75;;;4.70;;
20535;SDS011;10426;49.420;8.390;2022-09-12T05:27:24;5.95;;;4.65;;
20535;SDS011;10426;49.420;8.390;2022-09-12T05:29:51;4.80;;;4.40;;
20535;SDS011;10426;49.420;8.390;2022-09-12T05:32:18;5.00;;;4.60;;
20535;SDS011;10426;49.420;8.390;2022-09-12T05:34:45;5.30;;;4.90;;
20535;SDS011;10426;49.420;8.390;2022-09-12T05:37:11;6.13;;;5.38;;
20535;SDS011;10426;49.420;8.390;2022-09-12T05:39:38;5.33;;;4.93;;
20535;SDS011;10426;49.420;8.390;2022-09-12T05:42:06;5.82;;;5.30;;
20535;SDS011;10426;49.420;8.390;2022-09-12T05:44:33;8.38;;;6.10;;
20535;SDS011;10426;49.420;8.390;2022-09-12T05:47:00;7.15;;;6.07;;
20535;SDS011;10426;49.420;8.390;2022-09-12T05:49:26;6.65;;;6.00;;
20535;SDS011;10426;49.420;8.390;2022-09-12T05:51:54;7.60;;;6.40;;
20535;SDS011;10426;49.420;8.390;2022-09-12T05:54:20;6.63;;;5.95;;
20535;SDS011;10426;49.420;8.390;2022-09-12T05:56:47;7.07;;;5.95;;
20535;SDS011;10426;49.420;8.390;2022-09-12T05:59:16;6.28;;;5.75;;
20535;SDS011;10426;49.420;8.390;2022-09-12T06:01:43;6.57;;;5.97;;
20535;SDS011;10426;49.420;8.390;2022-09-12T06:04:10;7.00;;;5.97;;
20535;SDS011;10426;49.420;8.390;2022-09-12T06:06:38;6.57;;;5.72;;
20535;SDS011;10426;49.420;8.390;2022-09-12T06:09:06;7.25;;;6.47;;
20535;SDS011;10426;49.420;8.390;2022-09-12T06:11:33;7.35;;;6.65;;
20535;SDS011;10426;49.420;8.390;2022-09-12T06:14:01;7.80;;;6.60;;
20535;SDS011;10426;49.420;8.390;2022-09-12T06:16:30;7.82;;;6.90;;
20535;SDS011;10426;49.420;8.390;2022-09-12T06:18:57;7.25;;;6.55;;
20535;SDS011;10426;49.420;8.390;2022-09-12T06:21:24;8.43;;;6.70;;
20535;SDS011;10426;49.420;8.390;2022-09-12T06:23:52;7.30;;;6.38;;
20535;SDS011;10426;49.420;8.390;2022-09-12T06:26:19;8.55;;;7.63;;
20535;SDS011;10426;49.420;8.390;2022-09-12T06:28:48;8.35;;;7.20;;
20535;SDS011;10426;49.420;8.390;2022-09-12T06:31:15;9.15;;;7.40;;
20535;SDS011;10426;49.420;8.390;2022-09-12T06:33:45;9.57;;;7.18;;
20535;SDS011;10426;49.420;8.390;2022-09-12T06:36:12;8.15;;;7.20;;
20535;SDS011;10426;49.420;8.390;2022-09-12T06:38:40;9.63;;;7.57;;
20535;SDS011;10426;49.420;8.390;2022-09-12T06:41:08;8.65;;;7.25;;
20535;SDS011;10426;49.420;8.390;2022-09-12T06:43:35;9.63;;;7.85;;
20535;SDS011;10426;49.420;8.390;2022-09-12T06:46:01;11.15;;;7.82;;
20535;SDS011;10426;49.420;8.390;2022-09-12T06:48:28;10.75;;;7.95;;
20535;SDS011;10426;49.420;8.390;2022-09-12T06:50:57;9.85;;;7.75;;
20535;SDS011;10426;49.420;8.390;2022-09-12T06:53:24;9.77;;;8.63;;
20535;SDS011;10426;49.420;8.390;2022-09-12T06:55:54;10.57;;;7.97;;
20535;SDS011;10426;49.420;8.390;2022-09-12T06:58:21;11.98;;;8.88;;
20535;SDS011;10426;49.420;8.390;2022-09-12T07:00:48;10.95;;;8.52;;
20535;SDS011;10426;49.420;8.390;2022-09-12T07:03:14;11.93;;;8.32;;
20535;SDS011;10426;49.420;8.390;2022-09-12T07:05:41;10.60;;;8.98;;
20535;SDS011;10426;49.420;8.390;2022-09-12T07:08:09;11.45;;;8.40;;
20535;SDS011;10426;49.420;8.390;2022-09-12T07:10:36;10.05;;;8.48;;
20535;SDS011;10426;49.420;8.390;2022-09-12T07:13:02;10.00;;;8.67;;
20535;SDS011;10426;49.420;8.390;2022-09-12T07:15:29;10.85;;;8.63;;
20535;SDS011;10426;49.420;8.390;2022-09-12T07:17:55;11.05;;;8.70;;
20535;SDS011;10426;49.420;8.390;2022-09-12T07:20:22;11.20;;;8.85;;
20535;SDS011;10426;49.420;8.390;2022-09-12T07:22:49;9.77;;;8.73;;
20535;SDS011;10426;49.420;8.390;2022-09-12T07:25:17;10.00;;;8.40;;
20535;SDS011;10426;49.420;8.390;2022-09-12T07:27:44;11.23;;;9.03;;
20535;SDS011;10426;49.420;8.390;2022-09-12T07:30:10;13.65;;;9.10;;
20535;SDS011;10426;49.420;8.390;2022-09-12T07:32:37;11.85;;;8.98;;
20535;SDS011;10426;49.420;8.390;2022-09-12T07:35:04;10.57;;;9.47;;
20535;SDS011;10426;49.420;8.390;2022-09-12T07:37:31;11.70;;;8.30;;
20535;SDS011;10426;49.420;8.390;2022-09-12T07:39:58;10.77;;;8.98;;
20535;SDS011;10426;49.420;8.390;2022-09-12T07:42:26;10.95;;;9.00;;
20535;SDS011;10426;49.420;8.390;2022-09-12T07:44:52;12.37;;;9.50;;
20535;SDS011;10426;49.420;8.390;2022-09-12T07:47:19;11.38;;;9.60;;
20535;SDS011;10426;49.420;8.390;2022-09-12T07:49:46;13.20;;;9.13;;
20535;SDS011;10426;49.420;8.390;2022-09-12T07:52:12;11.02;;;9.52;;
20535;SDS011;10426;49.420;8.390;2022-09-12T07:54:39;12.68;;;9.35;;
20535;SDS011;10426;49.420;8.390;2022-09-12T07:57:06;11.00;;;9.00;;
20535;SDS011;10426;49.420;8.390;2022-09-12T07:59:34;11.35;;;9.32;;
20535;SDS011;10426;49.420;8.390;2022-09-12T08:02:09;11.20;;;9.45;;
20535;SDS011;10426;49.420;8.390;2022-09-12T08:04:36;12.23;;;9.35;;
20535;SDS011;10426;49.420;8.390;2022-09-12T08:07:02;10.63;;;9.53;;
20535;SDS011;10426;49.420;8.390;2022-09-12T08:09:30;12.02;;;9.48;;
20535;SDS011;10426;49.420;8.390;2022-09-12T08:11:57;11.52;;;9.20;;
20535;SDS011;10426;49.420;8.390;2022-09-12T08:14:24;10.80;;;9.20;;
20535;SDS011;10426;49.420;8.390;2022-09-12T08:16:53;9.82;;;8.32;;
20535;SDS011;10426;49.420;8.390;2022-09-12T08:19:20;9.10;;;7.25;;
20535;SDS011;10426;49.420;8.390;2022-09-12T08:21:47;10.15;;;8.00;;
20535;SDS011;10426;49.420;8.390;2022-09-12T08:24:14;8.90;;;7.70;;
20535;SDS011;10426;49.420;8.390;2022-09-12T08:26:41;8.88;;;7.57;;
20535;SDS011;10426;49.420;8.390;2022-09-12T08:29:07;7.75;;;6.25;;
20535;SDS011;10426;49.420;8.390;2022-09-12T08:31:34;7.68;;;6.65;;
20535;SDS011;10426;49.420;8.390;2022-09-12T08:34:03;8.30;;;7.40;;
20535;SDS011;10426;49.420;8.390;2022-09-12T08:36:30;8.43;;;6.63;;
20535;SDS011;10426;49.420;8.390;2022-09-12T08:38:57;7.82;;;6.93;;
20535;SDS011;10426;49.420;8.390;2022-09-12T08:41:25;8.45;;;7.18;;
20535;SDS011;10426;49.420;8.390;2022-09-12T08:43:57;7.38;;;6.50;;
20535;SDS011;10426;49.420;8.390;2022-09-12T08:46:27;7.65;;;6.45;;
20535;SDS011;10426;49.420;8.390;2022-09-12T08:48:57;7.35;;;6.35;;
20535;SDS011;10426;49.420;8.390;2022-09-12T08:51:27;7.22;;;6.53;;
20535;SDS011;10426;49.420;8.390;2022-09-12T08:53:54;6.63;;;6.07;;
20535;SDS011;10426;49.420;8.390;2022-09-12T08:56:22;6.90;;;6.20;;
20535;SDS011;10426;49.420;8.390;2022-09-12T08:58:51;7.22;;;6.53;;
20535;SDS011;10426;49.420;8.390;2022-09-12T09:01:21;6.95;;;6.22;;
20535;SDS011;10426;49.420;8.390;2022-09-12T09:03:58;7.70;;;6.72;;
20535;SDS011;10426;49.420;8.390;2022-09-12T09:06:38;8.10;;;6.30;;
20535;SDS011;10426;49.420;8.390;2022-09-12T09:09:08;6.88;;;6.25;;
20535;SDS011;10426;49.420;8.390;2022-09-12T09:11:41;6.53;;;5.93;;
20535;SDS011;10426;49.420;8.390;2022-09-12T09:14:17;5.63;;;5.13;;
20535;SDS011;10426;49.420;8.390;2022-09-12T09:17:08;5.95;;;5.13;;
20535;SDS011;10426;49.420;8.390;2022-09-12T09:19:37;6.13;;;5.57;;
20535;SDS011;10426;49.420;8.390;2022-09-12T09:22:10;5.60;;;5.10;;
20535;SDS011;10426;49.420;8.390;2022-09-12T09:24:40;5.78;;;4.90;;
20535;SDS011;10426;49.420;8.390;2022-09-12T09:27:09;5.90;;;5.40;;
20535;SDS011;10426;49.420;8.390;2022-09-12T09:29:39;5.88;;;5.28;;
20535;SDS011;10426;49.420;8.390;2022-09-12T09:32:09;5.27;;;4.80;;
20535;SDS011;10426;49.420;8.390;2022-09-12T09:34:39;5.00;;;4.60;;
20535;SDS011;10426;49.420;8.390;2022-09-12T09:37:08;5.93;;;4.87;;
20535;SDS011;10426;49.420;8.390;2022-09-12T09:39:42;5.60;;;5.07;;
20535;SDS011;10426;49.420;8.390;2022-09-12T09:42:15;5.15;;;4.70;;
20535;SDS011;10426;49.420;8.390;2022-09-12T09:44:44;4.53;;;4.13;;
20535;SDS011;10426;49.420;8.390;2022-09-12T09:47:12;4.70;;;4.30;;
20535;SDS011;10426;49.420;8.390;2022-09-12T09:49:39;4.72;;;4.28;;
20535;SDS011;10426;49.420;8.390;2022-09-12T09:52:07;5.10;;;4.60;;
20535;SDS011;10426;49.420;8.390;2022-09-12T09:54:38;4.40;;;4.10;;
20535;SDS011;10426;49.420;8.390;2022-09-12T09:59:47;4.28;;;3.97;;
20535;SDS011;10426;49.420;8.390;2022-09-12T10:02:18;4.00;;;3.72;;
20535;SDS011;10426;49.420;8.390;2022-09-12T10:04:51;3.88;;;3.58;;
20535;SDS011;10426;49.420;8.390;2022-09-12T10:07:22;6.53;;;4.40;;
20535;SDS011;10426;49.420;8.390;2022-09-12T10:10:02;4.07;;;3.75;;
20535;SDS011;10426;49.420;8.390;2022-09-12T10:12:30;3.97;;;3.67;;
20535;SDS011;10426;49.420;8.390;2022-09-12T10:14:57;3.47;;;3.20;;
20535;SDS011;10426;49.420;8.390;2022-09-12T10:17:26;4.03;;;3.60;;
20535;SDS011;10426;49.420;8.390;2022-09-12T10:19:53;4.22;;;3.67;;
20535;SDS011;10426;49.420;8.390;2022-09-12T10:22:22;3.45;;;3.25;;
20535;SDS011;10426;49.420;8.390;2022-09-12T10:24:53;3.50;;;3.20;;
20535;SDS011;10426;49.420;8.390;2022-09-12T10:27:23;3.63;;;3.33;;
20535;SDS011;10426;49.420;8.390;2022-09-12T10:29:52;3.50;;;3.30;;
20535;SDS011;10426;49.420;8.390;2022-09-12T10:32:23;3.33;;;3.13;;
20535;SDS011;10426;49.420;8.390;2022-09-12T10:34:51;3.30;;;3.03;;
20535;SDS011;10426;49.420;8.390;2022-09-12T10:37:22;3.38;;;3.17;;
20535;SDS011;10426;49.420;8.390;2022-09-12T10:39:50;3.20;;;3.00;;
20535;SDS011;10426;49.420;8.390;2022-09-12T10:45:00;4.13;;;2.80;;
20535;SDS011;10426;49.420;8.390;2022-09-12T10:47:26;3.00;;;2.80;;
20535;SDS011;10426;49.420;8.390;2022-09-12T10:49:59;2.97;;;2.77;;
20535;SDS011;10426;49.420;8.390;2022-09-12T10:52:44;2.60;;;2.50;;
20535;SDS011;10426;49.420;8.390;2022-09-12T10:55:12;2.60;;;2.50;;
20535;SDS011;10426;49.420;8.390;2022-09-12T10:57:42;2.10;;;2.00;;
20535;SDS011;10426;49.420;8.390;2022-09-12T11:00:16;1.67;;;1.67;;
20535;SDS011;10426;49.420;8.390;2022-09-12T11:02:56;2.10;;;2.00;;
20535;SDS011;10426;49.420;8.390;2022-09-12T11:05:30;1.85;;;1.85;;
20535;SDS011;10426;49.420;8.390;2022-09-12T11:08:02;2.20;;;2.10;;
20535;SDS011;10426;49.420;8.390;2022-09-12T11:10:36;2.10;;;2.00;;
20535;SDS011;10426;49.420;8.390;2022-09-12T11:13:11;2.20;;;2.10;;
20535;SDS011;10426;49.420;8.390;2022-09-12T11:15:45;2.20;;;2.10;;
20535;SDS011;10426;49.420;8.390;2022-09-12T11:18:24;2.05;;;1.95;;
20535;SDS011;10426;49.420;8.390;2022-09-12T11:20:59;3.50;;;2.50;;
20535;SDS011;10426;49.420;8.390;2022-09-12T11:23:35;2.53;;;2.42;;
20535;SDS011;10426;49.420;8.390;2022-09-12T11:26:12;2.30;;;2.20;;
20535;SDS011;10426;49.420;8.390;2022-09-12T11:28:47;2.20;;;2.10;;
20535;SDS011;10426;49.420;8.390;2022-09-12T11:31:19;1.80;;;1.77;;
20535;SDS011;10426;49.420;8.390;2022-09-12T11:33:49;3.90;;;2.03;;
20535;SDS011;10426;49.420;8.390;2022-09-12T11:36:23;2.23;;;2.03;;
20535;SDS011;10426;49.420;8.390;2022-09-12T11:38:55;2.92;;;2.15;;
20535;SDS011;10426;49.420;8.390;2022-09-12T11:41:28;1.92;;;1.90;;
20535;SDS011;10426;49.420;8.390;2022-09-12T11:43:56;32.08;;;10.50;;
20535;SDS011;10426;49.420;8.390;2022-09-12T11:46:26;8.95;;;4.43;;
20535;SDS011;10426;49.420;8.390;2022-09-12T11:48:56;10.07;;;4.38;;
20535;SDS011;10426;49.420;8.390;2022-09-12T11:51:25;9.73;;;4.93;;
20535;SDS011;10426;49.420;8.390;2022-09-12T11:53:58;13.23;;;4.35;;
20535;SDS011;10426;49.420;8.390;2022-09-12T11:56:25;2.05;;;1.95;;
20535;SDS011;10426;49.420;8.390;2022-09-12T11:58:54;3.30;;;1.92;;
20535;SDS011;10426;49.420;8.390;2022-09-12T12:01:25;10.25;;;4.03;;
20535;SDS011;10426;49.420;8.390;2022-09-12T12:03:53;5.25;;;3.05;;
20535;SDS011;10426;49.420;8.390;2022-09-12T12:06:23;1.90;;;1.80;;
20535;SDS011;10426;49.420;8.390;2022-09-12T12:08:51;1.80;;;1.70;;
20535;SDS011;10426;49.420;8.390;2022-09-12T12:11:24;1.90;;;1.80;;
20535;SDS011;10426;49.420;8.390;2022-09-12T12:13:54;1.90;;;1.80;;
20535;SDS011;10426;49.420;8.390;2022-09-12T12:16:23;1.80;;;1.70;;
20535;SDS011;10426;49.420;8.390;2022-09-12T12:18:54;2.03;;;1.92;;
20535;SDS011;10426;49.420;8.390;2022-09-12T12:21:31;2.10;;;2.00;;
20535;SDS011;10426;49.420;8.390;2022-09-12T12:24:09;2.25;;;2.00;;
20535;SDS011;10426;49.420;8.390;2022-09-12T12:26:41;2.75;;;2.00;;
20535;SDS011;10426;49.420;8.390;2022-09-12T12:29:09;2.10;;;1.90;;
20535;SDS011;10426;49.420;8.390;2022-09-12T12:34:20;2.60;;;1.80;;
20535;SDS011;10426;49.420;8.390;2022-09-12T12:36:48;1.50;;;1.50;;
20535;SDS011;10426;49.420;8.390;2022-09-12T12:42:03;1.80;;;1.70;;
20535;SDS011;10426;49.420;8.390;2022-09-12T12:47:15;2.70;;;1.90;;
20535;SDS011;10426;49.420;8.390;2022-09-12T12:49:47;1.55;;;1.45;;
20535;SDS011;10426;49.420;8.390;2022-09-12T12:52:29;1.60;;;1.60;;
20535;SDS011;10426;49.420;8.390;2022-09-12T12:54:57;1.50;;;1.50;;
20535;SDS011;10426;49.420;8.390;2022-09-12T12:57:28;2.00;;;1.70;;
20535;SDS011;10426;49.420;8.390;2022-09-12T12:59:57;2.03;;;1.60;;
20535;SDS011;10426;49.420;8.390;2022-09-12T13:02:27;1.80;;;1.70;;
20535;SDS011;10426;49.420;8.390;2022-09-12T13:04:56;1.70;;;1.60;;
20535;SDS011;10426;49.420;8.390;2022-09-12T13:07:28;1.52;;;1.52;;
20535;SDS011;10426;49.420;8.390;2022-09-12T13:09:56;2.05;;;1.60;;
20535;SDS011;10426;49.420;8.390;2022-09-12T13:12:25;1.73;;;1.63;;
20535;SDS011;10426;49.420;8.390;2022-09-12T13:14:53;1.55;;;1.55;;
20535;SDS011;10426;49.420;8.390;2022-09-12T13:17:22;1.55;;;1.45;;
20535;SDS011;10426;49.420;8.390;2022-09-12T13:19:52;1.60;;;1.60;;
20535;SDS011;10426;49.420;8.390;2022-09-12T13:22:21;1.60;;;1.50;;
20535;SDS011;10426;49.420;8.390;2022-09-12T13:24:49;1.45;;;1.35;;
20535;SDS011;10426;49.420;8.390;2022-09-12T13:27:18;1.52;;;1.45;;
20535;SDS011;10426;49.420;8.390;2022-09-12T13:29:44;1.33;;;1.30;;
20535;SDS011;10426;49.420;8.390;2022-09-12T13:32:11;1.40;;;1.30;;
20535;SDS011;10426;49.420;8.390;2022-09-12T13:34:41;1.65;;;1.55;;
20535;SDS011;10426;49.420;8.390;2022-09-12T13:37:16;1.70;;;1.30;;
20535;SDS011;10426;49.420;8.390;2022-09-12T13:39:48;1.50;;;1.40;;
20535;SDS011;10426;49.420;8.390;2022-09-12T13:44:57;1.60;;;1.50;;
20535;SDS011;10426;49.420;8.390;2022-09-12T13:47:25;1.60;;;1.50;;
20535;SDS011;10426;49.420;8.390;2022-09-12T13:49:53;2.10;;;1.50;;
20535;SDS011;10426;49.420;8.390;2022-09-12T13:52:22;1.50;;;1.40;;
20535;SDS011;10426;49.420;8.390;2022-09-12T13:54:52;1.20;;;1.20;;
20535;SDS011;10426;49.420;8.390;2022-09-12T13:57:30;1.60;;;1.50;;
20535;SDS011;10426;49.420;8.390;2022-09-12T13:59:58;1.40;;;1.30;;
20535;SDS011;10426;49.420;8.390;2022-09-12T14:02:26;1.40;;;1.30;;
20535;SDS011;10426;49.420;8.390;2022-09-12T14:04:53;1.20;;;1.20;;
20535;SDS011;10426;49.420;8.390;2022-09-12T14:07:36;1.90;;;1.80;;
20535;SDS011;10426;49.420;8.390;2022-09-12T14:10:04;1.40;;;1.40;;
20535;SDS011;10426;49.420;8.390;2022-09-12T14:12:33;2.17;;;1.33;;
20535;SDS011;10426;49.420;8.390;2022-09-12T14:15:02;1.50;;;1.40;;
20535;SDS011;10426;49.420;8.390;2022-09-12T14:17:31;1.35;;;1.35;;
20535;SDS011;10426;49.420;8.390;2022-09-12T14:20:01;1.40;;;1.40;;
20535;SDS011;10426;49.420;8.390;2022-09-12T14:22:28;1.90;;;1.40;;
20535;SDS011;10426;49.420;8.390;2022-09-12T14:24:56;1.30;;;1.30;;
20535;SDS011;10426;49.420;8.390;2022-09-12T14:27:24;1.30;;;1.30;;
20535;SDS011;10426;49.420;8.390;2022-09-12T14:29:55;1.40;;;1.40;;
20535;SDS011;10426;49.420;8.390;2022-09-12T14:32:24;1.35;;;1.35;;
20535;SDS011;10426;49.420;8.390;2022-09-12T14:35:16;1.40;;;1.40;;
20535;SDS011;10426;49.420;8.390;2022-09-12T14:37:43;1.40;;;1.40;;
20535;SDS011;10426;49.420;8.390;2022-09-12T14:40:16;1.38;;;1.38;;
20535;SDS011;10426;49.420;8.390;2022-09-12T14:42:43;1.67;;;1.67;;
20535;SDS011;10426;49.420;8.390;2022-09-12T14:45:12;1.80;;;1.55;;
20535;SDS011;10426;49.420;8.390;2022-09-12T14:47:41;1.65;;;1.60;;
20535;SDS011;10426;49.420;8.390;2022-09-12T14:50:13;1.50;;;1.40;;
20535;SDS011;10426;49.420;8.390;2022-09-12T14:52:41;2.13;;;1.50;;
20535;SDS011;10426;49.420;8.390;2022-09-12T14:55:20;1.65;;;1.55;;
20535;SDS011;10426;49.420;8.390;2022-09-12T14:57:57;1.23;;;1.23;;
20535;SDS011;10426;49.420;8.390;2022-09-12T15:00:32;1.42;;;1.40;;
20535;SDS011;10426;49.420;8.390;2022-09-12T15:03:14;1.30;;;1.30;;
20535;SDS011;10426;49.420;8.390;2022-09-12T15:05:47;1.30;;;1.30;;
20535;SDS011;10426;49.420;8.390;2022-09-12T15:08:14;1.50;;;1.40;;
20535;SDS011;10426;49.420;8.390;2022-09-12T15:10:42;1.40;;;1.40;;
20535;SDS011;10426;49.420;8.390;2022-09-12T15:13:19;1.48;;;1.42;;
20535;SDS011;10426;49.420;8.390;2022-09-12T15:15:47;1.40;;;1.40;;
20535;SDS011;10426;49.420;8.390;2022-09-12T15:18:14;1.38;;;1.38;;
20535;SDS011;10426;49.420;8.390;2022-09-12T15:20:41;2.08;;;1.40;;